Navios*hios — SXJH — position and weather

sailwx.info

Track history (hours):
 
Tides and Currents Weather Stations Pressure Air Temp Water Temp Dewpoint Dewpoint Depression Visibility Wind Speed Wind Dir Waves Ship Positions

Navios*hios

Last reported at 2014-Jul-28 19:26 UTC. Time now 2014-Jul-31 01:17 UTC.
Position N 36°37' W 027°25'.

Length 183 m; draft 11.5 m.

Type: Cargo ship. MMSI: 240149000.

Date/timePositionNaut miles runAvg speedWind from/ knotsBaromVisibWave heightAir tempDewpointWater temp
2014-Jul-28 19:26N 36°37' W 027°25'1111.5
2014-Jul-28 18:32N 36°36' W 027°12'1211.7
2014-Jul-28 17:32N 36°36' W 026°58'1211.8
2014-Jul-28 16:33N 36°36' W 026°43'1212.0
2014-Jul-28 15:33N 36°35' W 026°28'1211.7
2014-Jul-28 14:33N 36°35' W 026°14'1211.6
2014-Jul-28 13:33N 36°34' W 025°59'1211.7
2014-Jul-28 12:33N 36°34' W 025°45'1111.4
2014-Jul-28 11:34N 36°33' W 025°31'1211.5
2014-Jul-28 10:33N 36°33' W 025°16'1211.8
2014-Jul-28 09:33N 36°33' W 025°02'1211.5
2014-Jul-28 08:33N 36°32' W 024°47'1111.4
2014-Jul-28 07:33N 36°31' W 024°33'1111.5
2014-Jul-28 06:33N 36°30' W 024°19'1111.1
2014-Jul-28 05:33N 36°30' W 024°05'1111.3
2014-Jul-28 04:33N 36°30' W 023°51'1111.4
2014-Jul-28 03:33N 36°29' W 023°37'1111.4
2014-Jul-28 02:34N 36°29' W 023°23'1211.4
2014-Jul-28 01:33N 36°28' W 023°08'1211.1
2014-Jul-28 00:28N 36°28' W 022°54'1111.1
2014-Jul-27 23:28N 36°28' W 022°40'1111.1
2014-Jul-27 22:30N 36°27' W 022°26'1411.3
2014-Jul-27 21:17N 36°26' W 022°09'  
2014-Jul-25 04:24N 35°57' W 006°57'1311.5
2014-Jul-25 03:18N 35°59' W 006°41'  
2014-Jul-20 22:10N 37°15' W 000°31'711.7
2014-Jul-20 21:33N 37°15' W 000°21'1411.4
2014-Jul-20 20:18N 37°16' W 000°04'1111.4
2014-Jul-20 19:20N 37°17' E 000°10'1211.5
2014-Jul-20 18:17N 37°17' E 000°25'11211.5
2014-Jul-20 08:32N 37°24' E 002°47'1010.5
2014-Jul-20 07:33N 37°25' E 002°59'1210.9
2014-Jul-20 06:27N 37°25' E 003°15'2211.5
2014-Jul-20 04:33N 37°27' E 003°42'1212.3
2014-Jul-20 03:33N 37°27' E 003°57'1312.4
2014-Jul-20 02:33N 37°28' E 004°13'1212.4
2014-Jul-20 01:33N 37°29' E 004°29'1312.2
2014-Jul-20 00:31N 37°30' E 004°45'3912.6
2014-Jul-19 21:27N 37°32' E 005°33'1213.1
2014-Jul-19 20:32N 37°35' E 005°48'1110.5
2014-Jul-19 19:30N 37°40' E 006°01'6 5.9
2014-Jul-19 18:28N 37°34' E 006°03'1212.6
2014-Jul-19 17:31N 37°34' E 006°18'2613.0
2014-Jul-19 15:32N 37°35' E 006°51'1514.3
2014-Jul-19 14:30N 37°37' E 007°09'1712.6
2014-Jul-19 13:11N 37°38' E 007°30'1212.8
2014-Jul-19 12:14N 37°39' E 007°46'16711.3
2014-Jul-18 21:30N 37°26' E 011°16'  
Track history (hours):
 
Tides and Currents Weather Stations Pressure Air Temp Water Temp Dewpoint Dewpoint Depression Visibility Wind Speed Wind Dir Waves Ship Positions

Navios*hios

Last reported at 2014-Jul-28 19:26 UTC. Time now 2014-Jul-31 01:17 UTC.
Position N 36°37' W 027°25'.

Length 183 m; draft 11.5 m.

Type: Cargo ship. MMSI: 240149000.

Date/timePositionNaut miles runAvg speedWind from/ knotsBaromVisibWave heightAir tempDewpointWater temp
2014-Jul-28 19:26N 36°37' W 027°25'1111.5
2014-Jul-28 18:32N 36°36' W 027°12'1211.7
2014-Jul-28 17:32N 36°36' W 026°58'1211.8
2014-Jul-28 16:33N 36°36' W 026°43'1212.0
2014-Jul-28 15:33N 36°35' W 026°28'1211.7
2014-Jul-28 14:33N 36°35' W 026°14'1211.6
2014-Jul-28 13:33N 36°34' W 025°59'1211.7
2014-Jul-28 12:33N 36°34' W 025°45'1111.4
2014-Jul-28 11:34N 36°33' W 025°31'1211.5
2014-Jul-28 10:33N 36°33' W 025°16'1211.8
2014-Jul-28 09:33N 36°33' W 025°02'1211.5
2014-Jul-28 08:33N 36°32' W 024°47'1111.4
2014-Jul-28 07:33N 36°31' W 024°33'1111.5
2014-Jul-28 06:33N 36°30' W 024°19'1111.1
2014-Jul-28 05:33N 36°30' W 024°05'1111.3
2014-Jul-28 04:33N 36°30' W 023°51'1111.4
2014-Jul-28 03:33N 36°29' W 023°37'1111.4
2014-Jul-28 02:34N 36°29' W 023°23'1211.4
2014-Jul-28 01:33N 36°28' W 023°08'1211.1
2014-Jul-28 00:28N 36°28' W 022°54'1111.1
2014-Jul-27 23:28N 36°28' W 022°40'1111.1
2014-Jul-27 22:30N 36°27' W 022°26'1411.3
2014-Jul-27 21:17N 36°26' W 022°09'  
2014-Jul-25 04:24N 35°57' W 006°57'1311.5
2014-Jul-25 03:18N 35°59' W 006°41'  
2014-Jul-20 22:10N 37°15' W 000°31'711.7
2014-Jul-20 21:33N 37°15' W 000°21'1411.4
2014-Jul-20 20:18N 37°16' W 000°04'1111.4
2014-Jul-20 19:20N 37°17' E 000°10'1211.5
2014-Jul-20 18:17N 37°17' E 000°25'11211.5
2014-Jul-20 08:32N 37°24' E 002°47'1010.5
2014-Jul-20 07:33N 37°25' E 002°59'1210.9
2014-Jul-20 06:27N 37°25' E 003°15'2211.5
2014-Jul-20 04:33N 37°27' E 003°42'1212.3
2014-Jul-20 03:33N 37°27' E 003°57'1312.4
2014-Jul-20 02:33N 37°28' E 004°13'1212.4
2014-Jul-20 01:33N 37°29' E 004°29'1312.2
2014-Jul-20 00:31N 37°30' E 004°45'3912.6
2014-Jul-19 21:27N 37°32' E 005°33'1213.1
2014-Jul-19 20:32N 37°35' E 005°48'1110.5
2014-Jul-19 19:30N 37°40' E 006°01'6 5.9
2014-Jul-19 18:28N 37°34' E 006°03'1212.6
2014-Jul-19 17:31N 37°34' E 006°18'2613.0
2014-Jul-19 15:32N 37°35' E 006°51'1514.3
2014-Jul-19 14:30N 37°37' E 007°09'1712.6
2014-Jul-19 13:11N 37°38' E 007°30'1212.8
2014-Jul-19 12:14N 37°39' E 007°46'16711.3
2014-Jul-18 21:30N 37°26' E 011°16'  

Dump ship's entire track history